sensor_id;sensor_type;location;lat;lon;timestamp;pressure;altitude;pressure_sealevel;temperature;humidity
51439;BME280;38816;51.142;-0.974;2023-06-22T00:00:51;100360.78;;;15.34;100.00
51439;BME280;38816;51.142;-0.974;2023-06-22T00:03:21;100361.66;;;15.29;100.00
51439;BME280;38816;51.142;-0.974;2023-06-22T00:05:47;100359.94;;;15.23;100.00
51439;BME280;38816;51.142;-0.974;2023-06-22T00:08:13;100360.81;;;15.31;100.00
51439;BME280;38816;51.142;-0.974;2023-06-22T00:10:39;100349.56;;;15.37;100.00
51439;BME280;38816;51.142;-0.974;2023-06-22T00:13:06;100359.06;;;15.41;100.00
51439;BME280;38816;51.142;-0.974;2023-06-22T00:15:32;100370.28;;;15.37;100.00
51439;BME280;38816;51.142;-0.974;2023-06-22T00:17:57;100359.06;;;15.24;100.00
51439;BME280;38816;51.142;-0.974;2023-06-22T00:20:24;100364.25;;;15.24;100.00
51439;BME280;38816;51.142;-0.974;2023-06-22T00:22:56;100369.44;;;15.18;100.00
51439;BME280;38816;51.142;-0.974;2023-06-22T00:25:21;100378.06;;;15.08;100.00
51439;BME280;38816;51.142;-0.974;2023-06-22T00:27:47;100367.72;;;15.02;100.00
51439;BME280;38816;51.142;-0.974;2023-06-22T00:30:13;100365.97;;;14.94;100.00
51439;BME280;38816;51.142;-0.974;2023-06-22T00:32:39;100370.28;;;14.88;100.00
51439;BME280;38816;51.142;-0.974;2023-06-22T00:35:04;100360.78;;;14.79;100.00
51439;BME280;38816;51.142;-0.974;2023-06-22T00:37:30;100369.41;;;14.69;100.00
51439;BME280;38816;51.142;-0.974;2023-06-22T00:39:56;100360.75;;;14.62;100.00
51439;BME280;38816;51.142;-0.974;2023-06-22T00:42:22;100362.47;;;14.59;100.00
51439;BME280;38816;51.142;-0.974;2023-06-22T00:44:47;100367.66;;;14.57;100.00
51439;BME280;38816;51.142;-0.974;2023-06-22T00:47:14;100365.91;;;14.49;100.00
51439;BME280;38816;51.142;-0.974;2023-06-22T00:49:41;100363.28;;;14.47;100.00
51439;BME280;38816;51.142;-0.974;2023-06-22T00:52:06;100357.25;;;14.37;100.00
51439;BME280;38816;51.142;-0.974;2023-06-22T00:54:38;100364.13;;;14.37;100.00
51439;BME280;38816;51.142;-0.974;2023-06-22T00:57:04;100364.13;;;14.35;100.00
51439;BME280;38816;51.142;-0.974;2023-06-22T00:59:30;100362.38;;;14.30;100.00
51439;BME280;38816;51.142;-0.974;2023-06-22T01:01:57;100368.41;;;14.26;100.00
51439;BME280;38816;51.142;-0.974;2023-06-22T01:04:34;100365.78;;;14.16;100.00
51439;BME280;38816;51.142;-0.974;2023-06-22T01:10:17;100370.06;;;14.07;100.00
51439;BME280;38816;51.142;-0.974;2023-06-22T01:12:51;100370.03;;;14.01;100.00
51439;BME280;38816;51.142;-0.974;2023-06-22T01:15:29;100358.78;;;13.96;100.00
51439;BME280;38816;51.142;-0.974;2023-06-22T01:17:57;100371.72;;;14.00;100.00
51439;BME280;38816;51.142;-0.974;2023-06-22T01:20:25;100367.47;;;14.01;100.00
51439;BME280;38816;51.142;-0.974;2023-06-22T01:23:02;100368.31;;;14.01;100.00
51439;BME280;38816;51.142;-0.974;2023-06-22T01:25:58;100369.16;;;13.99;100.00
51439;BME280;38816;51.142;-0.974;2023-06-22T01:28:45;100371.69;;;13.91;100.00
51439;BME280;38816;51.142;-0.974;2023-06-22T01:31:14;100371.66;;;13.79;100.00
51439;BME280;38816;51.142;-0.974;2023-06-22T01:33:43;100387.06;;;13.68;100.00
51439;BME280;38816;51.142;-0.974;2023-06-22T01:36:09;100377.53;;;13.59;100.00
51439;BME280;38816;51.142;-0.974;2023-06-22T01:38:37;100368.91;;;13.53;100.00
51439;BME280;38816;51.142;-0.974;2023-06-22T01:41:03;100370.59;;;13.51;100.00
51439;BME280;38816;51.142;-0.974;2023-06-22T01:43:29;100359.41;;;13.50;100.00
51439;BME280;38816;51.142;-0.974;2023-06-22T01:45:56;100371.56;;;13.60;100.00
51439;BME280;38816;51.142;-0.974;2023-06-22T01:48:22;100368.94;;;13.59;100.00
51439;BME280;38816;51.142;-0.974;2023-06-22T01:50:48;100357.72;;;13.52;100.00
51439;BME280;38816;51.142;-0.974;2023-06-22T01:53:14;100367.19;;;13.55;100.00
51439;BME280;38816;51.142;-0.974;2023-06-22T01:55:39;100362.84;;;13.49;100.00
51439;BME280;38816;51.142;-0.974;2023-06-22T01:58:05;100370.59;;;13.48;100.00
51439;BME280;38816;51.142;-0.974;2023-06-22T02:00:37;100372.31;;;13.49;100.00
51439;BME280;38816;51.142;-0.974;2023-06-22T02:03:26;100376.63;;;13.47;100.00
51439;BME280;38816;51.142;-0.974;2023-06-22T02:05:52;100370.53;;;13.41;100.00
51439;BME280;38816;51.142;-0.974;2023-06-22T02:08:22;100370.53;;;13.41;100.00
51439;BME280;38816;51.142;-0.974;2023-06-22T02:10:49;100380.91;;;13.45;100.00
51439;BME280;38816;51.142;-0.974;2023-06-22T02:13:16;100373.97;;;13.37;100.00
51439;BME280;38816;51.142;-0.974;2023-06-22T02:15:42;100382.56;;;13.36;100.00
51439;BME280;38816;51.142;-0.974;2023-06-22T02:18:07;100377.31;;;13.27;100.00
51439;BME280;38816;51.142;-0.974;2023-06-22T02:20:36;100394.53;;;13.28;100.00
51439;BME280;38816;51.142;-0.974;2023-06-22T02:23:02;100397.88;;;13.18;100.00
51439;BME280;38816;51.142;-0.974;2023-06-22T02:25:27;100380.63;;;13.14;100.00
51439;BME280;38816;51.142;-0.974;2023-06-22T02:27:53;100391.81;;;13.13;100.00
51439;BME280;38816;51.142;-0.974;2023-06-22T02:30:18;100386.56;;;13.05;100.00
51439;BME280;38816;51.142;-0.974;2023-06-22T02:32:43;100392.63;;;13.07;100.00
51439;BME280;38816;51.142;-0.974;2023-06-22T02:35:09;100387.44;;;13.03;100.00
51439;BME280;38816;51.142;-0.974;2023-06-22T02:37:38;100375.34;;;13.00;100.00
51439;BME280;38816;51.142;-0.974;2023-06-22T02:40:07;100377.03;;;12.97;100.00
51439;BME280;38816;51.142;-0.974;2023-06-22T02:42:34;100382.22;;;12.98;100.00
51439;BME280;38816;51.142;-0.974;2023-06-22T02:44:59;100375.31;;;12.96;100.00
51439;BME280;38816;51.142;-0.974;2023-06-22T02:47:25;100369.25;;;12.92;100.00
51439;BME280;38816;51.142;-0.974;2023-06-22T02:49:51;100365.88;;;12.98;100.00
51439;BME280;38816;51.142;-0.974;2023-06-22T02:52:16;100371.16;;;13.14;100.00
51439;BME280;38816;51.142;-0.974;2023-06-22T02:54:42;100364.38;;;13.23;100.00
51439;BME280;38816;51.142;-0.974;2023-06-22T02:57:07;100372.22;;;13.33;100.00
51439;BME280;38816;51.142;-0.974;2023-06-22T02:59:42;100374.00;;;13.43;100.00
51439;BME280;38816;51.142;-0.974;2023-06-22T03:02:08;100375.81;;;13.57;100.00
51439;BME280;38816;51.142;-0.974;2023-06-22T03:04:34;100367.28;;;13.67;100.00
51439;BME280;38816;51.142;-0.974;2023-06-22T03:07:00;100369.03;;;13.77;100.00
51439;BME280;38816;51.142;-0.974;2023-06-22T03:09:26;100372.53;;;13.85;100.00
51439;BME280;38816;51.142;-0.974;2023-06-22T03:11:53;100364.81;;;13.90;100.00
51439;BME280;38816;51.142;-0.974;2023-06-22T03:14:19;100367.41;;;13.94;100.00
51439;BME280;38816;51.142;-0.974;2023-06-22T03:16:44;100365.72;;;13.97;100.00
51439;BME280;38816;51.142;-0.974;2023-06-22T03:19:10;100370.00;;;13.99;100.00
51439;BME280;38816;51.142;-0.974;2023-06-22T03:21:37;100360.53;;;14.00;100.00
51439;BME280;38816;51.142;-0.974;2023-06-22T03:24:04;100367.47;;;14.07;100.00
51439;BME280;38816;51.142;-0.974;2023-06-22T03:26:30;100372.66;;;14.10;100.00
51439;BME280;38816;51.142;-0.974;2023-06-22T03:28:55;100360.56;;;14.09;100.00
51439;BME280;38816;51.142;-0.974;2023-06-22T03:31:21;100367.53;;;14.22;100.00
51439;BME280;38816;51.142;-0.974;2023-06-22T03:33:47;100347.72;;;14.24;100.00
51439;BME280;38816;51.142;-0.974;2023-06-22T03:36:13;100367.53;;;14.27;100.00
51439;BME280;38816;51.142;-0.974;2023-06-22T03:38:39;100361.50;;;14.26;100.00
51439;BME280;38816;51.142;-0.974;2023-06-22T03:41:04;100354.63;;;14.24;100.00
51439;BME280;38816;51.142;-0.974;2023-06-22T03:43:29;100352.91;;;14.29;100.00
51439;BME280;38816;51.142;-0.974;2023-06-22T03:45:55;100352.91;;;14.29;100.00
51439;BME280;38816;51.142;-0.974;2023-06-22T03:48:20;100336.50;;;14.24;100.00
51439;BME280;38816;51.142;-0.974;2023-06-22T03:50:45;100348.59;;;14.29;100.00
51439;BME280;38816;51.142;-0.974;2023-06-22T03:53:11;100344.28;;;14.28;100.00
51439;BME280;38816;51.142;-0.974;2023-06-22T03:55:36;100350.34;;;14.33;100.00
51439;BME280;38816;51.142;-0.974;2023-06-22T03:58:02;100349.47;;;14.34;100.00
51439;BME280;38816;51.142;-0.974;2023-06-22T04:02:55;100336.53;;;14.30;100.00
51439;BME280;38816;51.142;-0.974;2023-06-22T04:05:21;100346.03;;;14.32;100.00
51439;BME280;38816;51.142;-0.974;2023-06-22T04:07:46;100347.72;;;14.29;100.00
51439;BME280;38816;51.142;-0.974;2023-06-22T04:10:12;100352.03;;;14.24;100.00
51439;BME280;38816;51.142;-0.974;2023-06-22T04:12:37;100351.16;;;14.18;100.00
51439;BME280;38816;51.142;-0.974;2023-06-22T04:15:02;100352.84;;;14.16;100.00
51439;BME280;38816;51.142;-0.974;2023-06-22T04:17:28;100358.88;;;14.17;100.00
51439;BME280;38816;51.142;-0.974;2023-06-22T04:19:53;100360.63;;;14.21;100.00
51439;BME280;38816;51.142;-0.974;2023-06-22T04:22:19;100350.25;;;14.18;100.00
51439;BME280;38816;51.142;-0.974;2023-06-22T04:24:44;100343.38;;;14.14;100.00
51439;BME280;38816;51.142;-0.974;2023-06-22T04:27:10;100355.44;;;14.16;100.00
51439;BME280;38816;51.142;-0.974;2023-06-22T04:29:35;100354.59;;;14.16;100.00
51439;BME280;38816;51.142;-0.974;2023-06-22T04:32:01;100367.53;;;14.22;100.00
51439;BME280;38816;51.142;-0.974;2023-06-22T04:34:30;100346.00;;;14.18;100.00
51439;BME280;38816;51.142;-0.974;2023-06-22T04:36:56;100353.75;;;14.25;100.00
51439;BME280;38816;51.142;-0.974;2023-06-22T04:39:21;100348.56;;;14.20;100.00
51439;BME280;38816;51.142;-0.974;2023-06-22T04:41:47;100333.00;;;14.02;100.00
51439;BME280;38816;51.142;-0.974;2023-06-22T04:44:17;100346.78;;;14.08;100.00
51439;BME280;38816;51.142;-0.974;2023-06-22T04:46:53;100350.22;;;14.01;100.00
51439;BME280;38816;51.142;-0.974;2023-06-22T04:49:26;100354.53;;;14.04;100.00
51439;BME280;38816;51.142;-0.974;2023-06-22T04:52:02;100346.78;;;14.01;100.00
51439;BME280;38816;51.142;-0.974;2023-06-22T04:54:27;100355.41;;;14.09;100.00
51439;BME280;38816;51.142;-0.974;2023-06-22T04:56:53;100361.47;;;14.14;100.00
51439;BME280;38816;51.142;-0.974;2023-06-22T04:59:27;100359.75;;;14.22;100.00
51439;BME280;38816;51.142;-0.974;2023-06-22T05:02:00;100358.00;;;14.13;100.00
51439;BME280;38816;51.142;-0.974;2023-06-22T05:04:26;100366.59;;;14.08;100.00
51439;BME280;38816;51.142;-0.974;2023-06-22T05:06:53;100366.59;;;14.09;100.00
51439;BME280;38816;51.142;-0.974;2023-06-22T05:09:20;100365.78;;;14.16;100.00
51439;BME280;38816;51.142;-0.974;2023-06-22T05:11:46;100368.38;;;14.15;100.00
51439;BME280;38816;51.142;-0.974;2023-06-22T05:14:12;100370.97;;;14.19;100.00
51439;BME280;38816;51.142;-0.974;2023-06-22T05:16:38;100379.63;;;14.28;100.00
51439;BME280;38816;51.142;-0.974;2023-06-22T05:19:04;100369.28;;;14.31;100.00
51439;BME280;38816;51.142;-0.974;2023-06-22T05:21:30;100379.66;;;14.44;100.00
51439;BME280;38816;51.142;-0.974;2023-06-22T05:23:56;100373.69;;;14.52;100.00
51439;BME280;38816;51.142;-0.974;2023-06-22T05:26:27;100382.31;;;14.61;100.00
51439;BME280;38816;51.142;-0.974;2023-06-22T05:28:53;100373.69;;;14.62;100.00
51439;BME280;38816;51.142;-0.974;2023-06-22T05:31:19;100384.91;;;14.61;100.00
51439;BME280;38816;51.142;-0.974;2023-06-22T05:33:51;100384.88;;;14.54;100.00
51439;BME280;38816;51.142;-0.974;2023-06-22T05:36:16;100397.84;;;14.61;100.00
51439;BME280;38816;51.142;-0.974;2023-06-22T05:38:42;100397.00;;;14.64;100.00
51439;BME280;38816;51.142;-0.974;2023-06-22T05:41:08;100382.31;;;14.61;100.00
51439;BME280;38816;51.142;-0.974;2023-06-22T05:43:34;100400.44;;;14.63;100.00
51439;BME280;38816;51.142;-0.974;2023-06-22T05:46:01;100383.16;;;14.54;100.00
51439;BME280;38816;51.142;-0.974;2023-06-22T05:48:27;100380.53;;;14.47;100.00
51439;BME280;38816;51.142;-0.974;2023-06-22T05:50:53;100384.03;;;14.58;100.00
51439;BME280;38816;51.142;-0.974;2023-06-22T05:53:18;100379.75;;;14.69;100.00
51439;BME280;38816;51.142;-0.974;2023-06-22T05:55:44;100380.63;;;14.74;100.00
51439;BME280;38816;51.142;-0.974;2023-06-22T05:58:09;100386.66;;;14.76;100.00
51439;BME280;38816;51.142;-0.974;2023-06-22T06:00:35;100387.56;;;14.87;100.00
51439;BME280;38816;51.142;-0.974;2023-06-22T06:03:00;100383.25;;;15.05;100.00
51439;BME280;38816;51.142;-0.974;2023-06-22T06:05:32;100388.44;;;15.20;100.00
51439;BME280;38816;51.142;-0.974;2023-06-22T06:08:02;100385.84;;;15.25;100.00
51439;BME280;38816;51.142;-0.974;2023-06-22T06:10:28;100385.84;;;15.32;100.00
51439;BME280;38816;51.142;-0.974;2023-06-22T06:12:57;100390.13;;;15.39;100.00
51439;BME280;38816;51.142;-0.974;2023-06-22T06:15:23;100380.66;;;15.38;100.00
51439;BME280;38816;51.142;-0.974;2023-06-22T06:17:52;100385.81;;;15.54;100.00
51439;BME280;38816;51.142;-0.974;2023-06-22T06:20:21;100389.25;;;15.56;100.00
51439;BME280;38816;51.142;-0.974;2023-06-22T06:22:47;100390.97;;;15.57;100.00
51439;BME280;38816;51.142;-0.974;2023-06-22T06:25:13;100391.00;;;15.60;100.00
51439;BME280;38816;51.142;-0.974;2023-06-22T06:27:44;100388.41;;;15.63;100.00
51439;BME280;38816;51.142;-0.974;2023-06-22T06:30:11;100389.25;;;15.74;100.00
51439;BME280;38816;51.142;-0.974;2023-06-22T06:32:37;100384.91;;;15.94;100.00
51439;BME280;38816;51.142;-0.974;2023-06-22T06:35:05;100386.56;;;16.12;100.00
51439;BME280;38816;51.142;-0.974;2023-06-22T06:37:31;100384.72;;;16.33;100.00
51439;BME280;38816;51.142;-0.974;2023-06-22T06:39:56;100386.41;;;16.41;100.00
51439;BME280;38816;51.142;-0.974;2023-06-22T06:42:22;100383.88;;;16.32;100.00
51439;BME280;38816;51.142;-0.974;2023-06-22T06:44:49;100381.34;;;16.17;100.00
51439;BME280;38816;51.142;-0.974;2023-06-22T06:47:15;100371.78;;;16.31;100.00
51439;BME280;38816;51.142;-0.974;2023-06-22T06:49:40;100369.09;;;16.43;100.00
51439;BME280;38816;51.142;-0.974;2023-06-22T06:52:06;100377.59;;;16.73;100.00
51439;BME280;38816;51.142;-0.974;2023-06-22T06:54:31;100376.72;;;16.80;100.00
51439;BME280;38816;51.142;-0.974;2023-06-22T06:56:57;100383.66;;;16.77;100.00
51439;BME280;38816;51.142;-0.974;2023-06-22T06:59:22;100384.53;;;16.65;100.00
51439;BME280;38816;51.142;-0.974;2023-06-22T07:01:48;100375.16;;;16.49;100.00
51439;BME280;38816;51.142;-0.974;2023-06-22T07:04:14;100383.78;;;16.49;100.00
51439;BME280;38816;51.142;-0.974;2023-06-22T07:06:39;100371.66;;;16.51;100.00
51439;BME280;38816;51.142;-0.974;2023-06-22T07:09:05;100375.06;;;16.61;100.00
51439;BME280;38816;51.142;-0.974;2023-06-22T07:11:30;100381.03;;;16.78;100.00
51439;BME280;38816;51.142;-0.974;2023-06-22T07:13:55;100366.25;;;16.88;100.00
51439;BME280;38816;51.142;-0.974;2023-06-22T07:16:21;100380.88;;;17.03;100.00
51439;BME280;38816;51.142;-0.974;2023-06-22T07:18:46;100380.13;;;16.85;100.00
51439;BME280;38816;51.142;-0.974;2023-06-22T07:21:12;100389.63;;;16.86;100.00
51439;BME280;38816;51.142;-0.974;2023-06-22T07:23:37;100379.28;;;16.79;100.00
51439;BME280;38816;51.142;-0.974;2023-06-22T07:26:02;100371.53;;;16.71;100.00
51439;BME280;38816;51.142;-0.974;2023-06-22T07:28:28;100367.28;;;16.56;100.00
51439;BME280;38816;51.142;-0.974;2023-06-22T07:30:56;100370.75;;;16.60;100.00
51439;BME280;38816;51.142;-0.974;2023-06-22T07:33:22;100367.19;;;16.70;100.00
51439;BME280;38816;51.142;-0.974;2023-06-22T07:35:47;100378.41;;;16.83;100.00
51439;BME280;38816;51.142;-0.974;2023-06-22T07:38:13;100373.19;;;16.89;100.00
51439;BME280;38816;51.142;-0.974;2023-06-22T07:40:39;100367.03;;;16.99;100.00
51439;BME280;38816;51.142;-0.974;2023-06-22T07:43:07;100378.19;;;17.13;100.00
51439;BME280;38816;51.142;-0.974;2023-06-22T07:45:32;100369.44;;;17.22;100.00
51439;BME280;38816;51.142;-0.974;2023-06-22T07:48:00;100358.94;;;17.33;100.00
51439;BME280;38816;51.142;-0.974;2023-06-22T07:50:25;100370.00;;;17.55;100.00
51439;BME280;38816;51.142;-0.974;2023-06-22T07:52:51;100371.56;;;17.76;100.00
51439;BME280;38816;51.142;-0.974;2023-06-22T07:55:18;100370.47;;;17.95;100.00
51439;BME280;38816;51.142;-0.974;2023-06-22T07:57:43;100369.50;;;18.04;100.00
51439;BME280;38816;51.142;-0.974;2023-06-22T08:00:09;100362.44;;;18.15;100.00
51439;BME280;38816;51.142;-0.974;2023-06-22T08:02:42;100368.38;;;18.23;100.00
51439;BME280;38816;51.142;-0.974;2023-06-22T08:05:09;100357.88;;;18.31;100.00
51439;BME280;38816;51.142;-0.974;2023-06-22T08:07:35;100358.59;;;18.42;100.00
51439;BME280;38816;51.142;-0.974;2023-06-22T08:10:03;100361.84;;;18.58;100.00
51439;BME280;38816;51.142;-0.974;2023-06-22T08:12:29;100355.44;;;18.80;100.00
51439;BME280;38816;51.142;-0.974;2023-06-22T08:14:54;100344.06;;;18.87;100.00
51439;BME280;38816;51.142;-0.974;2023-06-22T08:17:20;100355.84;;;19.10;100.00
51439;BME280;38816;51.142;-0.974;2023-06-22T08:19:45;100351.16;;;19.30;100.00
51439;BME280;38816;51.142;-0.974;2023-06-22T08:22:10;100354.44;;;19.40;100.00
51439;BME280;38816;51.142;-0.974;2023-06-22T08:24:36;100354.31;;;19.47;100.00
51439;BME280;38816;51.142;-0.974;2023-06-22T08:27:01;100351.44;;;19.63;100.00
51439;BME280;38816;51.142;-0.974;2023-06-22T08:29:26;100351.75;;;19.92;100.00
51439;BME280;38816;51.142;-0.974;2023-06-22T08:31:52;100348.56;;;20.20;100.00
51439;BME280;38816;51.142;-0.974;2023-06-22T08:34:17;100351.72;;;20.34;100.00
51439;BME280;38816;51.142;-0.974;2023-06-22T08:36:47;100357.28;;;20.19;100.00
51439;BME280;38816;51.142;-0.974;2023-06-22T08:39:18;100362.66;;;20.13;100.00
51439;BME280;38816;51.142;-0.974;2023-06-22T08:41:45;100350.66;;;20.03;100.00
51439;BME280;38816;51.142;-0.974;2023-06-22T08:44:11;100362.25;;;20.31;100.00
51439;BME280;38816;51.142;-0.974;2023-06-22T08:46:36;100364.97;;;20.67;100.00
51439;BME280;38816;51.142;-0.974;2023-06-22T08:49:04;100364.09;;;21.04;100.00
51439;BME280;38816;51.142;-0.974;2023-06-22T08:51:29;100367.50;;;21.06;100.00
51439;BME280;38816;51.142;-0.974;2023-06-22T08:53:55;100363.47;;;20.94;100.00
51439;BME280;38816;51.142;-0.974;2023-06-22T08:56:20;100357.69;;;21.15;100.00
51439;BME280;38816;51.142;-0.974;2023-06-22T08:58:46;100368.66;;;21.31;99.54
51439;BME280;38816;51.142;-0.974;2023-06-22T09:01:11;100363.47;;;21.62;98.20
51439;BME280;38816;51.142;-0.974;2023-06-22T09:03:36;100364.47;;;21.89;96.01
51439;BME280;38816;51.142;-0.974;2023-06-22T09:06:03;100354.94;;;22.18;93.63
51439;BME280;38816;51.142;-0.974;2023-06-22T09:08:28;100361.16;;;22.14;92.51
51439;BME280;38816;51.142;-0.974;2023-06-22T09:10:54;100363.56;;;21.90;94.77
51439;BME280;38816;51.142;-0.974;2023-06-22T09:13:19;100366.72;;;22.02;91.96
51439;BME280;38816;51.142;-0.974;2023-06-22T09:15:45;100362.13;;;22.10;91.43
51439;BME280;38816;51.142;-0.974;2023-06-22T09:18:10;100363.94;;;22.39;89.54
51439;BME280;38816;51.142;-0.974;2023-06-22T09:20:36;100370.69;;;22.74;87.79
51439;BME280;38816;51.142;-0.974;2023-06-22T09:23:02;100374.31;;;22.98;85.92
51439;BME280;38816;51.142;-0.974;2023-06-22T09:25:27;100373.72;;;22.90;81.78
51439;BME280;38816;51.142;-0.974;2023-06-22T09:27:53;100382.19;;;22.98;79.48
51439;BME280;38816;51.142;-0.974;2023-06-22T09:30:18;100379.50;;;22.71;73.67
51439;BME280;38816;51.142;-0.974;2023-06-22T09:32:44;100373.19;;;22.77;73.40
51439;BME280;38816;51.142;-0.974;2023-06-22T09:35:09;100368.47;;;22.90;76.09
51439;BME280;38816;51.142;-0.974;2023-06-22T09:37:35;100383.75;;;22.75;75.85
51439;BME280;38816;51.142;-0.974;2023-06-22T09:40:01;100383.34;;;22.60;76.42
51439;BME280;38816;51.142;-0.974;2023-06-22T09:42:33;100386.47;;;22.72;76.94
51439;BME280;38816;51.142;-0.974;2023-06-22T09:44:59;100381.50;;;23.19;73.67
51439;BME280;38816;51.142;-0.974;2023-06-22T09:47:26;100382.63;;;23.62;68.54
51439;BME280;38816;51.142;-0.974;2023-06-22T09:49:52;100374.03;;;23.84;65.90
51439;BME280;38816;51.142;-0.974;2023-06-22T09:52:17;100385.84;;;23.95;66.21
51439;BME280;38816;51.142;-0.974;2023-06-22T09:54:43;100377.78;;;24.00;64.13
51439;BME280;38816;51.142;-0.974;2023-06-22T09:57:08;100379.78;;;24.17;62.94
51439;BME280;38816;51.142;-0.974;2023-06-22T09:59:33;100378.66;;;24.24;60.88
51439;BME280;38816;51.142;-0.974;2023-06-22T10:01:59;100383.25;;;24.19;61.23
51439;BME280;38816;51.142;-0.974;2023-06-22T10:04:24;100373.41;;;24.24;61.87
51439;BME280;38816;51.142;-0.974;2023-06-22T10:06:50;100376.94;;;23.99;58.95
51439;BME280;38816;51.142;-0.974;2023-06-22T10:09:16;100375.06;;;23.53;58.47
51439;BME280;38816;51.142;-0.974;2023-06-22T10:11:41;100383.44;;;23.39;57.98
51439;BME280;38816;51.142;-0.974;2023-06-22T10:14:06;100377.63;;;23.30;59.62
51439;BME280;38816;51.142;-0.974;2023-06-22T10:16:32;100377.84;;;23.48;61.04
51439;BME280;38816;51.142;-0.974;2023-06-22T10:18:58;100377.16;;;23.70;58.93
51439;BME280;38816;51.142;-0.974;2023-06-22T10:21:23;100368.66;;;23.87;59.38
51439;BME280;38816;51.142;-0.974;2023-06-22T10:23:49;100379.94;;;24.14;54.24
51439;BME280;38816;51.142;-0.974;2023-06-22T10:26:15;100383.16;;;24.20;53.74
51439;BME280;38816;51.142;-0.974;2023-06-22T10:28:40;100388.75;;;23.88;54.38
51439;BME280;38816;51.142;-0.974;2023-06-22T10:31:05;100383.53;;;23.36;54.94
51439;BME280;38816;51.142;-0.974;2023-06-22T10:33:31;100395.75;;;23.37;57.85
51439;BME280;38816;51.142;-0.974;2023-06-22T10:35:56;100386.47;;;23.27;60.37
51439;BME280;38816;51.142;-0.974;2023-06-22T10:38:21;100385.19;;;23.64;59.66
51439;BME280;38816;51.142;-0.974;2023-06-22T10:40:47;100383.59;;;24.10;58.17
51439;BME280;38816;51.142;-0.974;2023-06-22T10:43:12;100387.97;;;24.56;58.08
51439;BME280;38816;51.142;-0.974;2023-06-22T10:45:37;100384.50;;;24.99;54.86
51439;BME280;38816;51.142;-0.974;2023-06-22T10:48:03;100388.41;;;25.11;51.86
51439;BME280;38816;51.142;-0.974;2023-06-22T10:50:28;100386.19;;;25.00;51.98
51439;BME280;38816;51.142;-0.974;2023-06-22T10:52:54;100391.19;;;25.07;53.56
51439;BME280;38816;51.142;-0.974;2023-06-22T10:55:19;100387.44;;;25.14;50.49
51439;BME280;38816;51.142;-0.974;2023-06-22T10:57:45;100385.56;;;25.16;50.78
51439;BME280;38816;51.142;-0.974;2023-06-22T11:00:13;100385.41;;;25.41;51.94
51439;BME280;38816;51.142;-0.974;2023-06-22T11:02:38;100382.22;;;25.73;49.50
51439;BME280;38816;51.142;-0.974;2023-06-22T11:05:04;100394.28;;;25.99;48.11
51439;BME280;38816;51.142;-0.974;2023-06-22T11:07:30;100395.06;;;26.01;48.64
51439;BME280;38816;51.142;-0.974;2023-06-22T11:09:55;100388.47;;;25.71;48.74
51439;BME280;38816;51.142;-0.974;2023-06-22T11:12:21;100391.91;;;25.52;48.19
51439;BME280;38816;51.142;-0.974;2023-06-22T11:14:46;100395.38;;;25.12;49.90
51439;BME280;38816;51.142;-0.974;2023-06-22T11:17:11;100394.16;;;24.55;48.91
51439;BME280;38816;51.142;-0.974;2023-06-22T11:19:37;100386.81;;;24.16;50.85
51439;BME280;38816;51.142;-0.974;2023-06-22T11:22:02;100385.88;;;24.42;52.62
51439;BME280;38816;51.142;-0.974;2023-06-22T11:24:27;100377.28;;;24.83;53.08
51439;BME280;38816;51.142;-0.974;2023-06-22T11:26:53;100390.25;;;25.09;52.17
51439;BME280;38816;51.142;-0.974;2023-06-22T11:29:18;100388.28;;;24.92;51.95
51439;BME280;38816;51.142;-0.974;2023-06-22T11:31:44;100388.16;;;24.95;50.54
51439;BME280;38816;51.142;-0.974;2023-06-22T11:34:09;100379.22;;;24.99;50.16
51439;BME280;38816;51.142;-0.974;2023-06-22T11:36:34;100388.28;;;24.70;50.70
51439;BME280;38816;51.142;-0.974;2023-06-22T11:39:01;100397.63;;;24.32;52.98
51439;BME280;38816;51.142;-0.974;2023-06-22T11:41:26;100383.00;;;24.02;53.29
51439;BME280;38816;51.142;-0.974;2023-06-22T11:43:52;100385.34;;;24.09;52.72
51439;BME280;38816;51.142;-0.974;2023-06-22T11:46:17;100388.50;;;24.42;52.33
51439;BME280;38816;51.142;-0.974;2023-06-22T11:48:42;100380.31;;;24.72;51.95
51439;BME280;38816;51.142;-0.974;2023-06-22T11:51:08;100380.47;;;25.13;47.80
51439;BME280;38816;51.142;-0.974;2023-06-22T11:53:34;100373.03;;;25.43;46.85
51439;BME280;38816;51.142;-0.974;2023-06-22T11:56:00;100352.22;;;25.57;46.58
51439;BME280;38816;51.142;-0.974;2023-06-22T11:58:26;100377.03;;;25.92;47.86
51439;BME280;38816;51.142;-0.974;2023-06-22T12:00:51;100371.56;;;26.16;45.37
51439;BME280;38816;51.142;-0.974;2023-06-22T12:03:17;100368.78;;;26.19;46.21
51439;BME280;38816;51.142;-0.974;2023-06-22T12:05:43;100375.72;;;26.40;45.78
51439;BME280;38816;51.142;-0.974;2023-06-22T12:08:08;100363.13;;;26.47;44.72
51439;BME280;38816;51.142;-0.974;2023-06-22T12:10:34;100357.06;;;26.45;45.38
51439;BME280;38816;51.142;-0.974;2023-06-22T12:12:59;100356.28;;;26.62;46.72
51439;BME280;38816;51.142;-0.974;2023-06-22T12:15:26;100346.19;;;26.70;44.03
51439;BME280;38816;51.142;-0.974;2023-06-22T12:17:52;100343.09;;;26.79;42.88
51439;BME280;38816;51.142;-0.974;2023-06-22T12:20:17;100349.16;;;26.81;42.12
51439;BME280;38816;51.142;-0.974;2023-06-22T12:22:43;100345.97;;;26.92;43.59
51439;BME280;38816;51.142;-0.974;2023-06-22T12:25:08;100344.63;;;27.19;44.03
51439;BME280;38816;51.142;-0.974;2023-06-22T12:27:35;100337.72;;;27.51;43.92
51439;BME280;38816;51.142;-0.974;2023-06-22T12:30:00;100323.38;;;27.56;42.49
51439;BME280;38816;51.142;-0.974;2023-06-22T12:32:26;100336.28;;;27.62;45.61
51439;BME280;38816;51.142;-0.974;2023-06-22T12:34:51;100338.69;;;27.84;43.58